createdAt,value
2019-04-26T00:02:24.097Z,1.10
2019-04-26T00:04:59.725Z,1.40
2019-04-26T00:07:34.633Z,1.20
2019-04-26T00:10:18.127Z,1.30
2019-04-26T00:13:02.050Z,1.20
2019-04-26T00:15:57.563Z,1.33
2019-04-26T00:18:32.507Z,1.43
2019-04-26T00:21:07.720Z,0.93
2019-04-26T00:23:43.978Z,1.00
2019-04-26T00:26:20.114Z,1.20
2019-04-26T00:28:54.143Z,1.27
2019-04-26T00:31:27.863Z,1.10
2019-04-26T00:34:01.882Z,0.97
2019-04-26T00:36:36.667Z,1.00
2019-04-26T00:39:10.518Z,1.40
2019-04-26T00:41:46.559Z,1.33
2019-04-26T00:44:20.900Z,1.17
2019-04-26T00:46:59.157Z,1.13
2019-04-26T00:49:43.408Z,1.10
2019-04-26T00:52:12.998Z,1.10
2019-04-26T00:54:48.707Z,1.10
2019-04-26T00:57:25.195Z,1.00
2019-04-26T01:00:00.954Z,1.20
2019-04-26T01:02:49.276Z,1.10
2019-04-26T01:05:25.159Z,1.10
2019-04-26T01:07:59.361Z,1.00
2019-04-26T01:10:33.934Z,1.40
2019-04-26T01:13:10.970Z,1.07
2019-04-26T01:15:44.665Z,1.30
2019-04-26T01:18:18.469Z,1.40
2019-04-26T01:20:56.987Z,1.10
2019-04-26T01:23:34.406Z,1.33
2019-04-26T01:26:17.953Z,1.00
2019-04-26T01:29:07.684Z,1.30
2019-04-26T01:31:53.912Z,1.13
2019-04-26T01:34:28.259Z,1.17
2019-04-26T01:37:04.150Z,1.20
2019-04-26T01:39:40.509Z,1.40
2019-04-26T01:42:35.304Z,0.80
2019-04-26T01:45:34.319Z,1.10
2019-04-26T01:48:34.289Z,1.30
2019-04-26T01:51:09.177Z,1.10
2019-04-26T01:53:45.032Z,1.30
2019-04-26T01:56:23.467Z,1.50
2019-04-26T01:58:57.401Z,1.20
2019-04-26T02:01:56.480Z,1.50
2019-04-26T02:04:33.375Z,1.60
2019-04-26T02:07:07.579Z,1.10
2019-04-26T02:09:44.251Z,1.20
2019-04-26T02:12:18.058Z,1.07
2019-04-26T02:14:54.218Z,1.17
2019-04-26T02:17:27.971Z,1.60
2019-04-26T02:20:02.214Z,1.37
2019-04-26T02:22:51.199Z,1.70
2019-04-26T02:25:25.975Z,1.30
2019-04-26T02:27:59.838Z,1.20
2019-04-26T02:30:35.367Z,1.30
2019-04-26T02:33:09.261Z,2.17
2019-04-26T02:35:44.398Z,1.50
2019-04-26T02:38:20.075Z,1.30
2019-04-26T02:40:54.846Z,1.90
2019-04-26T02:43:31.211Z,1.53
2019-04-26T02:46:21.363Z,1.20
2019-04-26T02:49:21.897Z,1.50
2019-04-26T02:52:15.438Z,1.33
2019-04-26T02:55:03.498Z,1.47
2019-04-26T02:57:54.325Z,1.67
2019-04-26T03:00:30.207Z,1.60
2019-04-26T03:03:10.613Z,1.53
2019-04-26T03:05:47.712Z,2.00
2019-04-26T03:08:25.787Z,1.60
2019-04-26T03:11:17.850Z,1.40
2019-04-26T03:14:20.259Z,1.53
2019-04-26T03:17:15.909Z,1.57
2019-04-26T03:20:02.987Z,1.40
2019-04-26T03:23:57.023Z,1.57
2019-04-26T03:27:15.131Z,1.50
2019-04-26T03:30:21.067Z,1.40
2019-04-26T03:33:54.292Z,1.50
2019-04-26T03:37:27.808Z,2.10
2019-04-26T03:40:47.868Z,2.37
2019-04-26T03:43:55.772Z,1.93
2019-04-26T03:46:46.752Z,1.73
2019-04-26T03:49:49.011Z,1.80
2019-04-26T03:52:55.143Z,1.90
2019-04-26T03:56:38.027Z,2.23
2019-04-26T04:00:18.133Z,2.10
2019-04-26T04:03:14.058Z,2.17
2019-04-26T04:05:52.179Z,2.27
2019-04-26T04:08:39.843Z,2.10
2019-04-26T04:11:19.358Z,2.57
2019-04-26T04:14:06.748Z,2.47
2019-04-26T04:17:43.142Z,2.20
2019-04-26T04:21:11.263Z,1.97
2019-04-26T04:24:08.412Z,2.37
2019-04-26T04:27:41.841Z,2.47
2019-04-26T04:31:01.705Z,2.67
2019-04-26T04:34:07.641Z,2.60
2019-04-26T04:36:54.751Z,2.80
2019-04-26T04:40:37.904Z,3.33
2019-04-26T04:43:34.914Z,3.10
2019-04-26T04:46:43.880Z,2.90
2019-04-26T04:49:50.461Z,2.67
2019-04-26T04:53:04.886Z,2.63
2019-04-26T04:56:10.228Z,2.73
2019-04-26T04:58:53.740Z,2.90
2019-04-26T05:02:50.668Z,2.40
2019-04-26T05:06:07.311Z,2.73
2019-04-26T05:08:56.695Z,2.23
2019-04-26T05:12:19.946Z,2.97
2019-04-26T05:16:03.224Z,2.60
2019-04-26T05:19:28.689Z,2.70
2019-04-26T05:23:06.582Z,2.60
2019-04-26T05:27:01.030Z,3.07
2019-04-26T05:30:31.880Z,3.50
2019-04-26T05:33:36.340Z,2.97
2019-04-26T05:36:52.758Z,2.83
2019-04-26T05:39:51.398Z,3.40
2019-04-26T05:43:34.283Z,2.60
2019-04-26T05:47:11.097Z,2.87
2019-04-26T05:50:58.144Z,2.63
2019-04-26T05:54:30.776Z,3.03
2019-04-26T05:57:45.926Z,2.47
2019-04-26T06:00:47.868Z,2.70
2019-04-26T06:04:25.115Z,2.80
2019-04-26T06:07:30.547Z,3.30
2019-04-26T06:10:33.928Z,2.87
2019-04-26T06:14:19.102Z,2.93
2019-04-26T06:17:59.726Z,3.13
2019-04-26T06:21:07.256Z,2.97
2019-04-26T06:24:31.223Z,3.20
2019-04-26T06:27:54.563Z,3.10
2019-04-26T06:30:59.389Z,3.60
2019-04-26T06:33:49.956Z,3.27
2019-04-26T06:36:37.699Z,3.63
2019-04-26T06:39:32.873Z,3.30
2019-04-26T06:42:54.879Z,3.00
2019-04-26T06:46:53.436Z,4.07
2019-04-26T06:50:15.097Z,3.47
2019-04-26T06:53:02.047Z,3.40
2019-04-26T06:55:50.903Z,3.00
2019-04-26T06:59:21.825Z,3.00
2019-04-26T07:02:09.823Z,3.50
2019-04-26T07:05:24.180Z,3.73
2019-04-26T07:08:57.807Z,3.40
2019-04-26T07:12:44.419Z,3.50
2019-04-26T07:16:01.357Z,2.97
2019-04-26T07:19:54.943Z,3.43
2019-04-26T07:23:33.020Z,3.60
2019-04-26T07:26:58.608Z,3.47
2019-04-26T07:30:26.013Z,4.10
2019-04-26T07:33:59.409Z,3.67
2019-04-26T07:37:47.312Z,3.83
2019-04-26T07:41:42.717Z,3.80
2019-04-26T07:45:05.484Z,3.67
2019-04-26T07:48:55.549Z,3.50
2019-04-26T07:52:21.237Z,2.97
2019-04-26T07:55:54.978Z,3.77
2019-04-26T07:59:30.834Z,3.47
2019-04-26T08:02:29.633Z,3.63
2019-04-26T08:05:19.704Z,3.80
2019-04-26T08:08:00.768Z,3.40
2019-04-26T08:10:40.536Z,3.73
2019-04-26T08:13:19.541Z,3.80
2019-04-26T08:16:20.474Z,3.90
2019-04-26T08:19:02.492Z,3.40
2019-04-26T08:21:47.931Z,3.70
2019-04-26T08:24:27.915Z,3.80
2019-04-26T08:27:18.888Z,3.80
2019-04-26T08:29:52.668Z,3.53
2019-04-26T08:32:33.382Z,3.50
2019-04-26T08:35:21.745Z,3.73
2019-04-26T08:37:59.605Z,3.63
2019-04-26T08:40:36.410Z,3.70
2019-04-26T08:43:45.942Z,3.60
2019-04-26T08:46:41.918Z,3.97
2019-04-26T08:49:39.172Z,3.80
2019-04-26T08:52:14.974Z,3.90
2019-04-26T08:54:55.368Z,4.60
2019-04-26T08:57:35.018Z,3.93
2019-04-26T09:00:27.361Z,3.13
2019-04-26T09:03:12.060Z,3.90
2019-04-26T09:06:06.391Z,3.57
2019-04-26T09:08:45.111Z,3.50
2019-04-26T09:11:26.458Z,4.00
2019-04-26T09:14:02.352Z,4.13
2019-04-26T09:16:36.437Z,4.10
2019-04-26T09:19:10.384Z,4.50
2019-04-26T09:21:59.095Z,4.80
2019-04-26T09:24:41.427Z,4.40
2019-04-26T09:27:35.208Z,4.90
2019-04-26T09:30:34.780Z,4.17
2019-04-26T09:33:17.466Z,4.43
2019-04-26T09:35:52.543Z,5.00
2019-04-26T09:38:26.291Z,4.77
2019-04-26T09:41:00.617Z,4.33
2019-04-26T09:43:47.824Z,4.40
2019-04-26T09:46:40.752Z,3.80
2019-04-26T09:49:29.498Z,4.17
2019-04-26T09:52:06.332Z,4.50
2019-04-26T09:54:41.191Z,4.27
2019-04-26T09:57:15.212Z,4.60
2019-04-26T10:03:27.947Z,4.00
2019-04-26T10:06:04.375Z,5.03
2019-04-26T10:08:38.187Z,5.30
2019-04-26T10:11:17.495Z,4.47
2019-04-26T10:13:58.198Z,5.43
2019-04-26T10:16:37.692Z,4.83
2019-04-26T10:19:17.366Z,4.60
2019-04-26T10:21:53.545Z,5.10
2019-04-26T10:24:27.344Z,5.07
2019-04-26T10:27:03.434Z,5.20
2019-04-26T10:29:36.887Z,5.30
2019-04-26T10:32:11.003Z,5.03
2019-04-26T10:34:47.250Z,5.10
2019-04-26T10:37:21.080Z,5.60
2019-04-26T10:40:13.090Z,4.80
2019-04-26T10:42:47.530Z,5.60
2019-04-26T10:45:23.953Z,5.83
2019-04-26T10:48:01.197Z,5.13
2019-04-26T10:50:35.209Z,5.00
2019-04-26T10:53:20.476Z,5.97
2019-04-26T10:56:11.693Z,5.60
2019-04-26T10:59:09.814Z,6.00
2019-04-26T11:01:45.410Z,4.93
2019-04-26T11:04:19.664Z,5.77
2019-04-26T11:06:53.794Z,5.60
2019-04-26T11:09:27.803Z,6.97
2019-04-26T11:12:01.753Z,7.47
2019-04-26T11:14:35.460Z,9.10
2019-04-26T11:17:11.523Z,8.83
2019-04-26T11:19:46.866Z,7.93
2019-04-26T11:22:28.929Z,8.43
2019-04-26T11:24:56.204Z,9.17
2019-04-26T11:27:31.727Z,8.60
2019-04-26T11:30:11.582Z,9.20
2019-04-26T11:32:45.724Z,8.80
2019-04-26T11:35:21.074Z,9.37
2019-04-26T11:37:56.638Z,8.73
2019-04-26T11:40:31.207Z,9.20
2019-04-26T11:43:05.381Z,8.60
2019-04-26T11:45:40.109Z,8.77
2019-04-26T11:48:15.328Z,9.40
2019-04-26T11:50:54.124Z,9.63
2019-04-26T11:53:27.940Z,10.37
2019-04-26T11:56:04.519Z,9.50
2019-04-26T11:58:37.721Z,9.60
2019-04-26T12:01:13.075Z,10.00
2019-04-26T12:04:07.121Z,10.17
2019-04-26T12:07:04.812Z,9.47
2019-04-26T12:09:42.213Z,9.93
2019-04-26T12:12:15.891Z,9.70
2019-04-26T12:14:49.849Z,9.73
2019-04-26T12:17:27.020Z,8.97
2019-04-26T12:20:01.981Z,9.17
2019-04-26T12:22:39.396Z,8.83
2019-04-26T12:25:13.329Z,8.90
2019-04-26T12:27:47.451Z,8.87
2019-04-26T12:30:26.438Z,7.60
2019-04-26T12:32:57.925Z,8.10
2019-04-26T12:35:33.871Z,8.40
2019-04-26T12:38:07.682Z,7.60
2019-04-26T12:40:42.299Z,7.37
2019-04-26T12:43:20.189Z,7.40
2019-04-26T12:46:32.200Z,5.80
2019-04-26T12:49:06.412Z,4.57
2019-04-26T12:51:42.705Z,3.83
2019-04-26T12:54:15.649Z,4.40
2019-04-26T12:56:49.462Z,4.80
2019-04-26T12:59:26.541Z,4.97
2019-04-26T13:02:05.825Z,4.67
2019-04-26T13:04:40.537Z,4.20
2019-04-26T13:07:23.878Z,4.13
2019-04-26T13:10:15.763Z,3.97
2019-04-26T13:13:06.356Z,3.70
2019-04-26T13:16:15.670Z,3.43
2019-04-26T13:18:51.657Z,3.97
2019-04-26T13:21:25.539Z,4.37
2019-04-26T13:24:04.319Z,4.03
2019-04-26T13:26:36.441Z,4.10
2019-04-26T13:29:10.533Z,4.30
2019-04-26T13:31:44.577Z,4.00
2019-04-26T13:34:19.371Z,3.70
2019-04-26T13:36:53.941Z,4.83
2019-04-26T13:39:28.038Z,4.57
2019-04-26T13:42:06.685Z,4.70
2019-04-26T13:45:00.632Z,5.33
2019-04-26T13:48:03.618Z,5.27
2019-04-26T13:50:44.779Z,5.17
2019-04-26T13:53:22.227Z,6.43
2019-04-26T13:55:58.170Z,5.90
2019-04-26T13:58:30.121Z,4.80
2019-04-26T14:01:05.614Z,5.37
2019-04-26T14:03:41.096Z,6.20
2019-04-26T14:06:18.267Z,5.10
2019-04-26T14:08:58.267Z,4.40
2019-04-26T14:11:34.180Z,3.20
2019-04-26T14:14:11.062Z,2.30
2019-04-26T14:16:45.799Z,3.10
2019-04-26T14:19:24.119Z,4.37
2019-04-26T14:21:58.622Z,4.73
2019-04-26T14:24:41.027Z,4.53
2019-04-26T14:27:24.042Z,5.23
2019-04-26T14:29:57.708Z,5.30
2019-04-26T14:32:31.547Z,5.00
2019-04-26T14:35:05.898Z,5.03
2019-04-26T14:37:40.142Z,5.10
2019-04-26T14:40:17.284Z,6.53
2019-04-26T14:42:50.484Z,6.30
2019-04-26T14:45:24.516Z,5.30
2019-04-26T14:48:00.275Z,4.70
2019-04-26T14:50:37.016Z,4.00
2019-04-26T14:53:11.048Z,5.17
2019-04-26T14:55:51.207Z,6.03
2019-04-26T14:58:23.897Z,5.00
2019-04-26T15:01:03.203Z,5.90
2019-04-26T15:03:51.488Z,7.67
2019-04-26T15:06:33.030Z,7.13
2019-04-26T15:09:17.998Z,8.33
2019-04-26T15:11:53.328Z,5.40
2019-04-26T15:14:20.634Z,7.57
2019-04-26T15:16:54.410Z,11.37
2019-04-26T15:19:28.640Z,15.70
2019-04-26T15:22:04.062Z,10.07
2019-04-26T15:24:40.023Z,7.00
2019-04-26T15:27:13.683Z,8.67
2019-04-26T15:29:47.510Z,7.87
2019-04-26T15:32:21.790Z,7.33
2019-04-26T15:34:58.581Z,5.87
2019-04-26T15:37:32.241Z,6.07
2019-04-26T15:40:27.414Z,6.10
2019-04-26T15:43:16.052Z,6.63
2019-04-26T15:46:14.795Z,7.70
2019-04-26T15:49:05.166Z,7.60
2019-04-26T15:51:42.648Z,7.43
2019-04-26T15:54:17.945Z,8.80
2019-04-26T15:56:55.305Z,8.83
2019-04-26T15:59:29.573Z,10.30
2019-04-26T16:02:03.622Z,10.00
2019-04-26T16:04:38.456Z,11.03
2019-04-26T16:07:16.661Z,10.70
2019-04-26T16:09:57.596Z,10.73
2019-04-26T16:12:32.072Z,11.23
2019-04-26T16:15:11.415Z,9.00
2019-04-26T16:17:43.267Z,8.83
2019-04-26T16:20:17.230Z,9.20
2019-04-26T16:22:53.380Z,9.43
2019-04-26T16:25:27.142Z,8.90
2019-04-26T16:28:18.814Z,9.30
2019-04-26T16:31:11.890Z,10.23
2019-04-26T16:33:47.154Z,11.03
2019-04-26T16:36:23.953Z,10.83
2019-04-26T16:38:58.079Z,10.20
2019-04-26T16:41:38.111Z,9.40
2019-04-26T16:44:13.023Z,7.70
2019-04-26T16:46:46.904Z,8.70
2019-04-26T16:49:28.893Z,8.90
2019-04-26T16:52:06.813Z,8.50
2019-04-26T16:54:38.607Z,10.57
2019-04-26T16:57:12.753Z,9.73
2019-04-26T16:59:53.551Z,11.03
2019-04-26T17:02:26.174Z,11.47
2019-04-26T17:05:04.611Z,11.93
2019-04-26T17:07:39.179Z,11.90
2019-04-26T17:10:09.391Z,12.53
2019-04-26T17:12:46.186Z,11.43
2019-04-26T17:15:21.014Z,12.73
2019-04-26T17:17:54.882Z,14.03
2019-04-26T17:20:29.681Z,12.17
2019-04-26T17:23:39.159Z,12.93
2019-04-26T17:26:36.564Z,13.90
2019-04-26T17:29:10.819Z,13.23
2019-04-26T17:31:44.857Z,12.70
2019-04-26T17:34:22.505Z,13.43
2019-04-26T17:36:55.254Z,13.77
2019-04-26T17:39:30.413Z,13.40
2019-04-26T17:42:04.991Z,13.67
2019-04-26T17:44:39.150Z,12.90
2019-04-26T17:47:20.273Z,12.83
2019-04-26T17:49:57.464Z,12.93
2019-04-26T17:52:36.126Z,12.43
2019-04-26T17:55:07.937Z,13.13
2019-04-26T17:57:48.410Z,11.33
2019-04-26T18:00:27.166Z,13.27
2019-04-26T18:03:01.793Z,12.60
2019-04-26T18:05:55.891Z,12.90
2019-04-26T18:08:33.585Z,13.37
2019-04-26T18:10:51.364Z,13.70
2019-04-26T18:13:26.385Z,13.17
2019-04-26T18:16:03.494Z,13.97
2019-04-26T18:19:05.628Z,14.60
2019-04-26T18:21:56.435Z,12.70
2019-04-26T18:24:32.303Z,14.67
2019-04-26T18:27:05.365Z,14.23
2019-04-26T18:29:39.485Z,14.77
2019-04-26T18:32:16.186Z,14.80
2019-04-26T18:34:50.534Z,14.40
2019-04-26T18:37:25.276Z,15.43
2019-04-26T18:40:02.036Z,13.93
2019-04-26T18:42:37.583Z,14.90
2019-04-26T18:45:14.088Z,15.10
2019-04-26T18:47:49.342Z,15.00
2019-04-26T18:50:24.246Z,16.30
2019-04-26T18:53:19.637Z,16.63
2019-04-26T18:55:53.623Z,18.07
2019-04-26T18:58:34.102Z,16.90
2019-04-26T19:01:07.255Z,17.20
2019-04-26T19:03:43.722Z,18.87
2019-04-26T19:06:28.665Z,19.73
2019-04-26T19:08:57.623Z,19.30
2019-04-26T19:11:32.419Z,18.17
2019-04-26T19:14:31.884Z,18.10
2019-04-26T19:17:31.777Z,20.20
2019-04-26T19:20:27.504Z,19.50
2019-04-26T19:23:05.687Z,18.13
2019-04-26T19:25:41.236Z,18.20
2019-04-26T19:28:23.641Z,19.07
2019-04-26T19:30:58.964Z,19.90
2019-04-26T19:33:32.810Z,19.40
2019-04-26T19:36:08.079Z,19.20
2019-04-26T19:38:49.935Z,20.90
2019-04-26T19:41:22.770Z,20.13
2019-04-26T19:43:57.702Z,20.20
2019-04-26T19:47:07.191Z,18.70
2019-04-26T19:50:03.092Z,19.53
2019-04-26T19:52:55.841Z,21.20
2019-04-26T19:55:51.850Z,20.70
2019-04-26T19:58:28.017Z,20.83
2019-04-26T20:01:04.384Z,20.20
2019-04-26T20:03:40.743Z,20.07
2019-04-26T20:06:18.834Z,19.77
2019-04-26T20:08:51.976Z,20.50
2019-04-26T20:11:26.678Z,20.07
2019-04-26T20:14:01.148Z,21.57
2019-04-26T20:16:40.847Z,21.67
2019-04-26T20:19:17.741Z,19.40
2019-04-26T20:21:51.176Z,19.33
2019-04-26T20:24:25.951Z,19.60
2019-04-26T20:27:01.444Z,20.60
2019-04-26T20:29:40.825Z,21.00
2019-04-26T20:32:23.873Z,21.70
2019-04-26T20:35:14.029Z,20.60
2019-04-26T20:37:48.679Z,21.83
2019-04-26T20:40:25.379Z,21.73
2019-04-26T20:43:03.350Z,21.73
2019-04-26T20:45:41.465Z,21.80
2019-04-26T20:48:13.243Z,23.40
2019-04-26T20:50:47.384Z,24.00
2019-04-26T20:53:22.550Z,22.33
2019-04-26T20:55:57.086Z,23.70
2019-04-26T20:58:32.370Z,23.33
2019-04-26T21:01:12.391Z,22.37
2019-04-26T21:03:46.161Z,24.03
2019-04-26T21:06:21.972Z,24.77
2019-04-26T21:08:59.175Z,25.47
2019-04-26T21:11:37.264Z,25.10
2019-04-26T21:14:08.831Z,28.27
2019-04-26T21:16:45.303Z,25.73
2019-04-26T21:19:19.192Z,26.43
2019-04-26T21:21:53.690Z,24.73
2019-04-26T21:24:29.750Z,25.23
2019-04-26T21:27:33.283Z,23.53
2019-04-26T21:30:29.440Z,24.70
2019-04-26T21:33:17.388Z,25.50
2019-04-26T21:36:16.068Z,24.67
2019-04-26T21:39:08.716Z,25.70
2019-04-26T21:41:45.181Z,28.33
2019-04-26T21:44:20.132Z,27.83
2019-04-26T21:46:58.639Z,27.20
2019-04-26T21:49:29.881Z,27.20
2019-04-26T21:52:03.913Z,28.53
2019-04-26T21:54:40.174Z,27.80
2019-04-26T21:57:14.046Z,29.00
2019-04-26T21:59:48.057Z,29.67
2019-04-26T22:02:25.385Z,29.20
2019-04-26T22:04:59.302Z,29.87
2019-04-26T22:07:34.961Z,30.60
2019-04-26T22:10:18.439Z,29.43
2019-04-26T22:12:53.921Z,27.43
2019-04-26T22:15:58.593Z,29.63
2019-04-26T22:19:03.832Z,28.50
2019-04-26T22:22:04.189Z,29.70
2019-04-26T22:24:39.475Z,29.83
2019-04-26T22:27:13.398Z,27.87
2019-04-26T22:29:51.814Z,28.33
2019-04-26T22:32:24.891Z,28.83
2019-04-26T22:34:58.553Z,30.37
2019-04-26T22:37:33.719Z,29.13
2019-04-26T22:40:10.581Z,27.07
2019-04-26T22:42:45.149Z,29.13
2019-04-26T22:45:39.480Z,28.13
2019-04-26T22:48:25.662Z,29.40
2019-04-26T22:51:04.479Z,29.40
2019-04-26T22:53:37.114Z,30.70
2019-04-26T22:56:11.073Z,28.90
2019-04-26T22:58:44.785Z,29.50
2019-04-26T23:01:18.742Z,28.03
2019-04-26T23:03:53.231Z,29.20
2019-04-26T23:06:27.995Z,29.27
2019-04-26T23:09:01.693Z,30.17
2019-04-26T23:11:35.509Z,29.83
2019-04-26T23:14:29.476Z,32.03
2019-04-26T23:17:50.050Z,33.27
2019-04-26T23:20:34.329Z,30.73
2019-04-26T23:23:08.612Z,31.63
2019-04-26T23:25:43.499Z,32.37
2019-04-26T23:28:17.252Z,31.73
2019-04-26T23:30:52.974Z,34.63
2019-04-26T23:33:27.516Z,33.47
2019-04-26T23:36:03.232Z,34.70
2019-04-26T23:38:37.745Z,35.00
2019-04-26T23:41:14.015Z,32.30
2019-04-26T23:43:47.017Z,34.50
2019-04-26T23:46:22.855Z,34.30
2019-04-26T23:48:59.077Z,32.80
2019-04-26T23:51:33.994Z,33.27
2019-04-26T23:54:07.809Z,32.67
2019-04-26T23:56:41.620Z,35.17
2019-04-26T23:59:20.922Z,35.87
